createdAt,value
2022-10-07T00:00:02.893Z,1016.97
2022-10-07T00:01:02.930Z,1016.93
2022-10-07T00:02:02.993Z,1016.93
2022-10-07T00:03:02.833Z,1016.90
2022-10-07T00:04:02.845Z,1016.87
2022-10-07T00:05:02.823Z,1016.87
2022-10-07T00:06:02.808Z,1016.89
2022-10-07T00:07:02.805Z,1016.87
2022-10-07T00:08:02.777Z,1016.90
2022-10-07T00:09:02.777Z,1016.88
2022-10-07T00:10:07.807Z,1016.91
2022-10-07T00:11:02.821Z,1016.88
2022-10-07T00:12:02.733Z,1016.88
2022-10-07T00:13:02.740Z,1016.92
2022-10-07T00:14:02.714Z,1016.88
2022-10-07T00:15:02.711Z,1016.84
2022-10-07T00:16:02.690Z,1016.79
2022-10-07T00:17:02.791Z,1016.79
2022-10-07T00:18:02.673Z,1016.83
2022-10-07T00:19:02.650Z,1016.80
2022-10-07T00:20:02.671Z,1016.81
2022-10-07T00:21:07.659Z,1016.83
2022-10-07T00:22:02.622Z,1016.86
2022-10-07T00:23:02.612Z,1016.86
2022-10-07T00:24:02.595Z,1016.83
2022-10-07T00:25:02.642Z,1016.86
2022-10-07T00:26:02.576Z,1016.83
2022-10-07T00:27:02.561Z,1016.83
2022-10-07T00:28:02.596Z,1016.79
2022-10-07T00:29:02.556Z,1016.80
2022-10-07T00:30:02.532Z,1016.85
2022-10-07T00:31:02.649Z,1016.85
2022-10-07T00:32:07.536Z,1016.78
2022-10-07T00:33:02.546Z,1016.73
2022-10-07T00:34:02.480Z,1016.75
2022-10-07T00:35:02.471Z,1016.64
2022-10-07T00:36:02.442Z,1016.70
2022-10-07T00:37:02.429Z,1016.66
2022-10-07T00:38:02.395Z,1016.70
2022-10-07T00:39:02.405Z,1016.72
2022-10-07T00:40:02.369Z,1016.72
2022-10-07T00:41:02.369Z,1016.71
2022-10-07T00:42:02.351Z,1016.65
2022-10-07T00:43:07.357Z,1016.59
2022-10-07T00:44:02.324Z,1016.55
2022-10-07T00:45:02.336Z,1016.56
2022-10-07T00:46:02.360Z,1016.55
2022-10-07T00:47:02.302Z,1016.57
2022-10-07T00:48:02.284Z,1016.55
2022-10-07T00:49:02.268Z,1016.49
2022-10-07T00:50:02.256Z,1016.42
2022-10-07T00:51:02.255Z,1016.43
2022-10-07T00:52:02.232Z,1016.45
2022-10-07T00:53:02.225Z,1016.46
2022-10-07T00:54:07.231Z,1016.43
2022-10-07T00:55:02.215Z,1016.42
2022-10-07T00:56:02.198Z,1016.42
2022-10-07T00:57:02.176Z,1016.38
2022-10-07T00:58:02.169Z,1016.40
2022-10-07T00:59:02.155Z,1016.35
2022-10-07T01:00:02.152Z,1016.37
2022-10-07T01:01:02.252Z,1016.40
2022-10-07T01:02:02.220Z,1016.40
2022-10-07T01:03:02.109Z,1016.41
2022-10-07T01:04:02.097Z,1016.36
2022-10-07T01:05:07.108Z,1016.32
2022-10-07T01:06:02.091Z,1016.33
2022-10-07T01:07:02.065Z,1016.34
2022-10-07T01:08:02.053Z,1016.38
2022-10-07T01:09:02.041Z,1016.30
2022-10-07T01:10:02.028Z,1016.30
2022-10-07T01:11:02.034Z,1016.32
2022-10-07T01:12:02.006Z,1016.30
2022-10-07T01:13:02.006Z,1016.32
2022-10-07T01:14:01.982Z,1016.30
2022-10-07T01:15:01.985Z,1016.31
2022-10-07T01:16:07.015Z,1016.34
2022-10-07T01:17:02.052Z,1016.33
2022-10-07T01:18:01.940Z,1016.29
2022-10-07T01:19:01.929Z,1016.29
2022-10-07T01:20:01.958Z,1016.29
2022-10-07T01:21:01.923Z,1016.29
2022-10-07T01:22:01.891Z,1016.30
2022-10-07T01:23:01.886Z,1016.32
2022-10-07T01:24:01.871Z,1016.29
2022-10-07T01:25:01.859Z,1016.24
2022-10-07T01:26:01.870Z,1016.30
2022-10-07T01:27:06.865Z,1016.20
2022-10-07T01:28:01.913Z,1016.21
2022-10-07T01:29:01.817Z,1016.23
2022-10-07T01:30:01.807Z,1016.21
2022-10-07T01:31:01.871Z,1016.17
2022-10-07T01:32:01.801Z,1016.15
2022-10-07T01:33:01.778Z,1016.15
2022-10-07T01:34:01.759Z,1016.10
2022-10-07T01:35:01.747Z,1016.21
2022-10-07T01:36:01.737Z,1016.11
2022-10-07T01:37:01.734Z,1016.08
2022-10-07T01:38:06.734Z,1016.09
2022-10-07T01:39:01.703Z,1016.10
2022-10-07T01:40:01.693Z,1016.08
2022-10-07T01:41:01.678Z,1016.09
2022-10-07T01:42:01.677Z,1016.08
2022-10-07T01:43:01.666Z,1016.06
2022-10-07T01:44:01.647Z,1016.01
2022-10-07T01:45:01.642Z,1016.03
2022-10-07T01:46:01.666Z,1016.04
2022-10-07T01:47:01.623Z,1015.99
2022-10-07T01:48:01.743Z,1015.96
2022-10-07T01:49:06.612Z,1015.91
2022-10-07T01:50:01.593Z,1015.93
2022-10-07T01:51:01.565Z,1015.86
2022-10-07T01:52:01.562Z,1015.82
2022-10-07T01:53:01.543Z,1015.81
2022-10-07T01:54:01.530Z,1015.85
2022-10-07T01:55:01.529Z,1015.83
2022-10-07T01:56:01.509Z,1015.79
2022-10-07T01:57:01.511Z,1015.82
2022-10-07T01:58:01.487Z,1015.79
2022-10-07T01:59:01.485Z,1015.85
2022-10-07T02:00:06.484Z,1015.79
2022-10-07T02:01:01.606Z,1015.81
2022-10-07T02:02:01.449Z,1015.82
2022-10-07T02:03:01.430Z,1015.82
2022-10-07T02:04:01.480Z,1015.81
2022-10-07T02:05:01.415Z,1015.75
2022-10-07T02:06:01.396Z,1015.76
2022-10-07T02:07:01.393Z,1015.79
2022-10-07T02:08:01.375Z,1015.76
2022-10-07T02:09:01.361Z,1015.79
2022-10-07T02:10:01.364Z,1015.78
2022-10-07T02:11:06.373Z,1015.78
2022-10-07T02:12:01.347Z,1015.84
2022-10-07T02:13:01.315Z,1015.80
2022-10-07T02:14:01.313Z,1015.75
2022-10-07T02:15:01.309Z,1015.76
2022-10-07T02:16:01.342Z,1015.73
2022-10-07T02:17:01.289Z,1015.73
2022-10-07T02:18:01.277Z,1015.67
2022-10-07T02:19:01.268Z,1015.73
2022-10-07T02:20:01.266Z,1015.70
2022-10-07T02:21:01.239Z,1015.67
2022-10-07T02:22:06.269Z,1015.69
2022-10-07T02:23:01.207Z,1015.61
2022-10-07T02:24:01.192Z,1015.59
2022-10-07T02:25:01.179Z,1015.64
2022-10-07T02:26:01.169Z,1015.57
2022-10-07T02:27:01.202Z,1015.60
2022-10-07T02:28:01.218Z,1015.58
2022-10-07T02:29:01.133Z,1015.54
2022-10-07T02:30:01.139Z,1015.56
2022-10-07T02:31:01.186Z,1015.57
2022-10-07T02:32:01.100Z,1015.49
2022-10-07T02:33:06.150Z,1015.54
2022-10-07T02:34:01.081Z,1015.47
2022-10-07T02:35:01.069Z,1015.50
2022-10-07T02:36:01.079Z,1015.46
2022-10-07T02:37:01.058Z,1015.40
2022-10-07T02:38:01.047Z,1015.43
2022-10-07T02:39:01.026Z,1015.42
2022-10-07T02:40:01.011Z,1015.40
2022-10-07T02:41:01.008Z,1015.41
2022-10-07T02:42:00.987Z,1015.40
2022-10-07T02:43:00.989Z,1015.44
2022-10-07T02:44:05.987Z,1015.39
2022-10-07T02:45:00.970Z,1015.43
2022-10-07T02:46:01.036Z,1015.33
2022-10-07T02:47:01.148Z,1015.34
2022-10-07T02:48:00.931Z,1015.37
2022-10-07T02:49:00.925Z,1015.44
2022-10-07T02:50:00.933Z,1015.44
2022-10-07T02:51:00.883Z,1015.41
2022-10-07T02:52:00.897Z,1015.38
2022-10-07T02:53:00.876Z,1015.33
2022-10-07T02:54:00.851Z,1015.34
2022-10-07T02:55:05.860Z,1015.33
2022-10-07T02:56:00.830Z,1015.39
2022-10-07T02:57:00.817Z,1015.41
2022-10-07T02:58:00.819Z,1015.36
2022-10-07T02:59:00.795Z,1015.41
2022-10-07T03:00:00.783Z,1015.34
2022-10-07T03:01:00.774Z,1015.41
2022-10-07T03:02:00.828Z,1015.34
2022-10-07T03:03:00.765Z,1015.34
2022-10-07T03:04:00.849Z,1015.29
2022-10-07T03:05:00.726Z,1015.39
2022-10-07T03:06:05.743Z,1015.32
2022-10-07T03:07:00.703Z,1015.36
2022-10-07T03:08:00.725Z,1015.33
2022-10-07T03:09:00.687Z,1015.33
2022-10-07T03:10:00.676Z,1015.32
2022-10-07T03:11:00.663Z,1015.40
2022-10-07T03:12:00.654Z,1015.32
2022-10-07T03:13:00.651Z,1015.33
2022-10-07T03:14:00.630Z,1015.36
2022-10-07T03:15:00.614Z,1015.26
2022-10-07T03:16:00.671Z,1015.25
2022-10-07T03:17:05.612Z,1015.30
2022-10-07T03:18:00.596Z,1015.26
2022-10-07T03:19:00.568Z,1015.26
2022-10-07T03:20:00.558Z,1015.31
2022-10-07T03:21:00.599Z,1015.28
2022-10-07T03:22:00.536Z,1015.29
2022-10-07T03:23:00.537Z,1015.24
2022-10-07T03:24:00.535Z,1015.29
2022-10-07T03:25:00.502Z,1015.29
2022-10-07T03:26:00.494Z,1015.23
2022-10-07T03:27:00.479Z,1015.23
2022-10-07T03:28:05.527Z,1015.24
2022-10-07T03:29:00.457Z,1015.20
2022-10-07T03:30:00.485Z,1015.18
2022-10-07T03:31:00.483Z,1015.12
2022-10-07T03:32:00.428Z,1015.11
2022-10-07T03:33:00.447Z,1015.10
2022-10-07T03:34:00.421Z,1015.12
2022-10-07T03:35:00.390Z,1015.11
2022-10-07T03:36:00.381Z,1015.05
2022-10-07T03:37:00.367Z,1015.07
2022-10-07T03:38:00.371Z,1015.00
2022-10-07T03:39:05.379Z,1015.06
2022-10-07T03:40:00.340Z,1015.05
2022-10-07T03:41:00.319Z,1015.06
2022-10-07T03:42:00.320Z,1015.09
2022-10-07T03:43:00.320Z,1015.07
2022-10-07T03:44:00.300Z,1015.07
2022-10-07T03:45:00.285Z,1015.06
2022-10-07T03:46:00.302Z,1015.01
2022-10-07T03:47:00.265Z,1015.03
2022-10-07T03:48:00.252Z,1015.01
2022-10-07T03:49:00.229Z,1014.98
2022-10-07T03:50:05.271Z,1014.97
2022-10-07T03:51:00.215Z,1014.98
2022-10-07T03:52:00.248Z,1015.00
2022-10-07T03:53:00.196Z,1014.92
2022-10-07T03:54:00.171Z,1014.95
2022-10-07T03:55:00.181Z,1014.96
2022-10-07T03:56:00.156Z,1015.00
2022-10-07T03:57:00.133Z,1014.98
2022-10-07T03:58:00.140Z,1014.96
2022-10-07T03:59:00.111Z,1014.98
2022-10-07T04:00:00.120Z,1014.96
2022-10-07T04:01:05.110Z,1014.88
2022-10-07T04:02:00.220Z,1014.96
2022-10-07T04:03:00.167Z,1014.94
2022-10-07T04:04:00.055Z,1014.96
2022-10-07T04:05:00.044Z,1014.95
2022-10-07T04:06:00.042Z,1014.92
2022-10-07T04:07:00.026Z,1014.92
2022-10-07T04:08:00.021Z,1014.93
2022-10-07T04:08:59.998Z,1014.89
2022-10-07T04:09:59.993Z,1014.89
2022-10-07T04:10:59.995Z,1014.90
2022-10-07T04:12:04.993Z,1014.86
2022-10-07T04:12:59.959Z,1014.96
2022-10-07T04:13:59.961Z,1014.92
2022-10-07T04:14:59.928Z,1014.95
2022-10-07T04:15:59.970Z,1014.96
2022-10-07T04:16:59.911Z,1014.96
2022-10-07T04:17:59.905Z,1014.93
2022-10-07T04:18:59.898Z,1014.95
2022-10-07T04:19:59.895Z,1014.92
2022-10-07T04:20:59.861Z,1014.93
2022-10-07T04:21:59.851Z,1014.92
2022-10-07T04:23:04.872Z,1014.91
2022-10-07T04:23:59.831Z,1014.86
2022-10-07T04:24:59.816Z,1014.86
2022-10-07T04:25:59.804Z,1014.92
2022-10-07T04:26:59.815Z,1014.90
2022-10-07T04:28:00.404Z,1014.90
2022-10-07T04:28:59.772Z,1014.82
2022-10-07T04:29:59.758Z,1014.79
2022-10-07T04:30:59.774Z,1014.75
2022-10-07T04:31:59.752Z,1014.80
2022-10-07T04:32:59.724Z,1014.80
2022-10-07T04:34:04.752Z,1014.77
2022-10-07T04:34:59.702Z,1014.81
2022-10-07T04:35:59.690Z,1014.80
2022-10-07T04:36:59.677Z,1014.68
2022-10-07T04:38:00.040Z,1014.74
2022-10-07T04:38:59.667Z,1014.76
2022-10-07T04:40:01.163Z,1014.72
2022-10-07T04:40:59.631Z,1014.69
2022-10-07T04:41:59.625Z,1014.65
2022-10-07T04:42:59.627Z,1014.66
2022-10-07T04:43:59.613Z,1014.64
2022-10-07T04:45:04.609Z,1014.62
2022-10-07T04:45:59.585Z,1014.63
2022-10-07T04:46:59.664Z,1014.65
2022-10-07T04:47:59.553Z,1014.65
2022-10-07T04:48:59.567Z,1014.60
2022-10-07T04:49:59.536Z,1014.60
2022-10-07T04:50:59.516Z,1014.54
2022-10-07T04:51:59.508Z,1014.52
2022-10-07T04:52:59.498Z,1014.56
2022-10-07T04:53:59.511Z,1014.48
2022-10-07T04:54:59.473Z,1014.59
2022-10-07T04:56:04.486Z,1014.57
2022-10-07T04:56:59.450Z,1014.56
2022-10-07T04:57:59.438Z,1014.62
2022-10-07T04:58:59.453Z,1014.53
2022-10-07T04:59:59.417Z,1014.54
2022-10-07T05:00:59.463Z,1014.55
2022-10-07T05:01:59.430Z,1014.44
2022-10-07T05:02:59.395Z,1014.53
2022-10-07T05:03:59.397Z,1014.51
2022-10-07T05:04:59.359Z,1014.55
2022-10-07T05:06:03.305Z,1014.52
2022-10-07T05:07:05.353Z,1014.48
2022-10-07T05:07:59.355Z,1014.43
2022-10-07T05:08:59.312Z,1014.38
2022-10-07T05:09:59.298Z,1014.38
2022-10-07T05:10:59.289Z,1014.36
2022-10-07T05:11:59.280Z,1014.35
2022-10-07T05:12:59.266Z,1014.29
2022-10-07T05:13:59.265Z,1014.42
2022-10-07T05:14:59.269Z,1014.36
2022-10-07T05:15:59.281Z,1014.40
2022-10-07T05:16:59.231Z,1014.45
2022-10-07T05:18:04.227Z,1014.37
2022-10-07T05:18:59.226Z,1014.39
2022-10-07T05:19:59.227Z,1014.36
2022-10-07T05:20:59.196Z,1014.37
2022-10-07T05:21:59.193Z,1014.35
2022-10-07T05:22:59.191Z,1014.32
2022-10-07T05:23:59.192Z,1014.39
2022-10-07T05:24:59.128Z,1014.39
2022-10-07T05:25:59.120Z,1014.42
2022-10-07T05:26:59.125Z,1014.33
2022-10-07T05:27:59.169Z,1014.34
2022-10-07T05:29:04.144Z,1014.42
2022-10-07T05:29:59.076Z,1014.34
2022-10-07T05:30:59.105Z,1014.32
2022-10-07T05:32:03.897Z,1014.36
2022-10-07T05:33:00.040Z,1014.36
2022-10-07T05:33:59.038Z,1014.27
2022-10-07T05:34:59.026Z,1014.34
2022-10-07T05:35:59.015Z,1014.28
2022-10-07T05:36:58.994Z,1014.39
2022-10-07T05:37:58.979Z,1014.37
2022-10-07T05:38:58.988Z,1014.34
2022-10-07T05:40:03.978Z,1014.31
2022-10-07T05:40:58.945Z,1014.34
2022-10-07T05:41:58.932Z,1014.39
2022-10-07T05:42:58.923Z,1014.37
2022-10-07T05:43:58.928Z,1014.36
2022-10-07T05:44:58.899Z,1014.35
2022-10-07T05:45:58.990Z,1014.37
2022-10-07T05:46:58.896Z,1014.41
2022-10-07T05:47:58.866Z,1014.35
2022-10-07T05:48:58.888Z,1014.33
2022-10-07T05:49:58.846Z,1014.36
2022-10-07T05:51:03.857Z,1014.37
2022-10-07T05:51:58.816Z,1014.34
2022-10-07T05:52:58.871Z,1014.38
2022-10-07T05:53:58.815Z,1014.29
2022-10-07T05:54:58.793Z,1014.26
2022-10-07T05:55:58.779Z,1014.23
2022-10-07T05:56:58.764Z,1014.27
2022-10-07T05:57:58.750Z,1014.21
2022-10-07T05:58:58.762Z,1014.22
2022-10-07T05:59:58.727Z,1014.24
2022-10-07T06:01:03.698Z,1014.22
2022-10-07T06:02:04.888Z,1014.22
2022-10-07T06:02:58.851Z,1014.19
2022-10-07T06:03:58.739Z,1014.23
2022-10-07T06:04:58.884Z,1014.28
2022-10-07T06:05:59.101Z,1014.28
2022-10-07T06:06:58.827Z,1014.24
2022-10-07T06:07:58.673Z,1014.24
2022-10-07T06:08:58.631Z,1014.23
2022-10-07T06:09:58.658Z,1014.23
2022-10-07T06:10:58.603Z,1014.22
2022-10-07T06:11:58.602Z,1014.18
2022-10-07T06:13:03.612Z,1014.24
2022-10-07T06:13:58.568Z,1014.22
2022-10-07T06:14:58.595Z,1014.20
2022-10-07T06:15:58.546Z,1014.20
2022-10-07T06:16:58.605Z,1014.26
2022-10-07T06:17:58.574Z,1014.23
2022-10-07T06:18:58.550Z,1014.22
2022-10-07T06:19:58.699Z,1014.23
2022-10-07T06:20:58.489Z,1014.29
2022-10-07T06:21:58.498Z,1014.27
2022-10-07T06:22:58.493Z,1014.29
2022-10-07T06:24:03.487Z,1014.26
2022-10-07T06:24:58.468Z,1014.24
2022-10-07T06:25:58.433Z,1014.25
2022-10-07T06:26:58.420Z,1014.29
2022-10-07T06:27:59.007Z,1014.30
2022-10-07T06:28:58.400Z,1014.25
2022-10-07T06:29:58.423Z,1014.30
2022-10-07T06:30:58.509Z,1014.27
2022-10-07T06:31:58.376Z,1014.31
2022-10-07T06:32:58.359Z,1014.26
2022-10-07T06:33:58.377Z,1014.26
2022-10-07T06:35:03.372Z,1014.29
2022-10-07T06:36:03.592Z,1014.33
2022-10-07T06:36:59.340Z,1014.35
2022-10-07T06:37:58.305Z,1014.31
2022-10-07T06:38:58.290Z,1014.34
2022-10-07T06:39:59.692Z,1014.37
2022-10-07T06:40:58.270Z,1014.32
2022-10-07T06:41:58.250Z,1014.31
2022-10-07T06:42:58.241Z,1014.25
2022-10-07T06:43:58.229Z,1014.29
2022-10-07T06:44:58.229Z,1014.31
2022-10-07T06:46:03.349Z,1014.22
2022-10-07T06:46:58.198Z,1014.26
2022-10-07T06:47:58.389Z,1014.25
2022-10-07T06:48:58.174Z,1014.23
2022-10-07T06:49:58.193Z,1014.29
2022-10-07T06:50:58.155Z,1014.31
2022-10-07T06:51:58.139Z,1014.25
2022-10-07T06:52:58.133Z,1014.23
2022-10-07T06:53:58.134Z,1014.30
2022-10-07T06:54:58.128Z,1014.24
2022-10-07T06:55:58.094Z,1014.28
2022-10-07T06:57:15.426Z,1014.35
2022-10-07T06:57:59.334Z,1014.28
2022-10-07T06:58:58.070Z,1014.28
2022-10-07T06:59:58.062Z,1014.31
2022-10-07T07:00:58.086Z,1014.26
2022-10-07T07:01:58.091Z,1014.32
2022-10-07T07:02:58.042Z,1014.35
2022-10-07T07:03:58.002Z,1014.33
2022-10-07T07:04:58.170Z,1014.30
2022-10-07T07:05:58.049Z,1014.35
2022-10-07T07:06:57.968Z,1014.28
2022-10-07T07:08:02.979Z,1014.26
2022-10-07T07:08:57.952Z,1014.23
2022-10-07T07:09:57.931Z,1014.29
2022-10-07T07:10:58.964Z,1014.28
2022-10-07T07:11:58.232Z,1014.27
2022-10-07T07:12:57.977Z,1014.30
2022-10-07T07:13:57.891Z,1014.30
2022-10-07T07:14:57.881Z,1014.36
2022-10-07T07:15:57.994Z,1014.29
2022-10-07T07:16:57.914Z,1014.31
2022-10-07T07:17:57.841Z,1014.34
2022-10-07T07:19:02.854Z,1014.32
2022-10-07T07:19:57.816Z,1014.33
2022-10-07T07:20:57.828Z,1014.36
2022-10-07T07:21:57.811Z,1014.32
2022-10-07T07:22:57.783Z,1014.32
2022-10-07T07:23:57.790Z,1014.30
2022-10-07T07:24:57.763Z,1014.26
2022-10-07T07:25:57.772Z,1014.24
2022-10-07T07:26:57.738Z,1014.30
2022-10-07T07:27:58.209Z,1014.24
2022-10-07T07:28:57.717Z,1014.26
2022-10-07T07:30:02.724Z,1014.31
2022-10-07T07:30:57.737Z,1014.24
2022-10-07T07:31:57.679Z,1014.18
2022-10-07T07:32:57.683Z,1014.26
2022-10-07T07:33:57.656Z,1014.22
2022-10-07T07:34:57.648Z,1014.26
2022-10-07T07:35:57.648Z,1014.28
2022-10-07T07:36:57.633Z,1014.30
2022-10-07T07:37:57.642Z,1014.31
2022-10-07T07:38:57.601Z,1014.33
2022-10-07T07:39:57.593Z,1014.30
2022-10-07T07:41:02.611Z,1014.29
2022-10-07T07:41:57.565Z,1014.26
2022-10-07T07:42:57.558Z,1014.24
2022-10-07T07:43:57.546Z,1014.30
2022-10-07T07:44:58.522Z,1014.32
2022-10-07T07:45:57.547Z,1014.26
2022-10-07T07:46:57.516Z,1014.24
2022-10-07T07:47:57.512Z,1014.22
2022-10-07T07:48:57.491Z,1014.22
2022-10-07T07:49:57.474Z,1014.16
2022-10-07T07:50:57.483Z,1014.13
2022-10-07T07:52:02.475Z,1014.12
2022-10-07T07:52:57.778Z,1014.17
2022-10-07T07:53:57.460Z,1014.14
2022-10-07T07:54:57.437Z,1014.20
2022-10-07T07:55:57.446Z,1014.18
2022-10-07T07:56:57.397Z,1014.09
2022-10-07T07:57:57.385Z,1014.14
2022-10-07T07:58:57.379Z,1014.10
2022-10-07T07:59:57.372Z,1014.17
2022-10-07T08:00:57.396Z,1014.19
2022-10-07T08:01:57.354Z,1014.17
2022-10-07T08:03:02.352Z,1014.17
2022-10-07T08:03:57.341Z,1014.11
2022-10-07T08:04:57.314Z,1014.16
2022-10-07T08:05:57.335Z,1014.25
2022-10-07T08:06:57.293Z,1014.21
2022-10-07T08:07:57.272Z,1014.18
2022-10-07T08:08:57.265Z,1014.21
2022-10-07T08:09:57.269Z,1014.14
2022-10-07T08:10:57.240Z,1014.18
2022-10-07T08:11:57.239Z,1014.11
2022-10-07T08:12:57.235Z,1014.14
2022-10-07T08:14:02.224Z,1014.15
2022-10-07T08:14:57.205Z,1014.10
2022-10-07T08:15:57.253Z,1014.10
2022-10-07T08:16:57.187Z,1014.10
2022-10-07T08:17:57.160Z,1014.01
2022-10-07T08:18:57.147Z,1014.07
2022-10-07T08:19:57.134Z,1014.01
2022-10-07T08:20:57.126Z,1014.07
2022-10-07T08:21:57.128Z,1014.06
2022-10-07T08:22:59.078Z,1014.14
2022-10-07T08:23:57.092Z,1014.08
2022-10-07T08:25:02.169Z,1014.10
2022-10-07T08:25:57.069Z,1014.12
2022-10-07T08:26:57.077Z,1014.12
2022-10-07T08:27:57.064Z,1014.07
2022-10-07T08:28:57.045Z,1014.06
2022-10-07T08:29:57.023Z,1014.02
2022-10-07T08:30:57.065Z,1014.04
2022-10-07T08:31:57.025Z,1014.06
2022-10-07T08:33:01.188Z,1014.00
2022-10-07T08:33:56.976Z,1014.02
2022-10-07T08:34:56.971Z,1014.05
2022-10-07T08:36:01.979Z,1013.98
2022-10-07T08:36:56.959Z,1013.95
2022-10-07T08:37:56.931Z,1013.96
2022-10-07T08:38:56.928Z,1013.93
2022-10-07T08:39:56.909Z,1013.88
2022-10-07T08:40:56.919Z,1013.94
2022-10-07T08:41:56.899Z,1013.90
2022-10-07T08:42:56.893Z,1013.90
2022-10-07T08:44:00.562Z,1013.90
2022-10-07T08:44:56.855Z,1013.91
2022-10-07T08:45:56.950Z,1013.90
2022-10-07T08:47:01.880Z,1013.90
2022-10-07T08:47:56.821Z,1013.86
2022-10-07T08:48:56.813Z,1013.88
2022-10-07T08:49:56.855Z,1013.85
2022-10-07T08:50:56.793Z,1013.83
2022-10-07T08:51:56.788Z,1013.86
2022-10-07T08:52:56.767Z,1013.81
2022-10-07T08:53:56.756Z,1013.82
2022-10-07T08:54:56.747Z,1013.93
2022-10-07T08:55:56.735Z,1013.79
2022-10-07T08:56:56.918Z,1013.84
2022-10-07T08:58:01.731Z,1013.81
2022-10-07T08:58:56.721Z,1013.79
2022-10-07T08:59:56.746Z,1013.76
2022-10-07T09:00:56.679Z,1013.73
2022-10-07T09:01:56.676Z,1013.73
2022-10-07T09:02:56.688Z,1013.76
2022-10-07T09:03:56.648Z,1013.70
2022-10-07T09:04:56.633Z,1013.78
2022-10-07T09:05:56.619Z,1013.73
2022-10-07T09:06:56.627Z,1013.76
2022-10-07T09:07:56.595Z,1013.78
2022-10-07T09:09:01.609Z,1013.73
2022-10-07T09:09:56.575Z,1013.80
2022-10-07T09:10:56.561Z,1013.76
2022-10-07T09:11:56.575Z,1013.75
2022-10-07T09:12:56.603Z,1013.70
2022-10-07T09:13:56.528Z,1013.71
2022-10-07T09:14:56.518Z,1013.70
2022-10-07T09:15:56.543Z,1013.68
2022-10-07T09:16:56.492Z,1013.67
2022-10-07T09:17:56.491Z,1013.66
2022-10-07T09:18:56.468Z,1013.66
2022-10-07T09:20:01.483Z,1013.65
2022-10-07T09:20:56.447Z,1013.64
2022-10-07T09:21:56.433Z,1013.65
2022-10-07T09:22:56.434Z,1013.60
2022-10-07T09:23:56.412Z,1013.60
2022-10-07T09:24:56.611Z,1013.54
2022-10-07T09:25:56.393Z,1013.60
2022-10-07T09:26:56.374Z,1013.50
2022-10-07T09:27:56.384Z,1013.60
2022-10-07T09:28:56.379Z,1013.62
2022-10-07T09:29:56.344Z,1013.56
2022-10-07T09:31:01.412Z,1013.49
2022-10-07T09:31:56.322Z,1013.54
2022-10-07T09:32:56.314Z,1013.53
2022-10-07T09:33:56.295Z,1013.49
2022-10-07T09:34:56.284Z,1013.52
2022-10-07T09:35:57.675Z,1013.51
2022-10-07T09:36:56.264Z,1013.44
2022-10-07T09:37:56.264Z,1013.46
2022-10-07T09:38:56.244Z,1013.48
2022-10-07T09:39:56.226Z,1013.43
2022-10-07T09:40:56.215Z,1013.50
2022-10-07T09:42:01.226Z,1013.38
2022-10-07T09:42:56.202Z,1013.39
2022-10-07T09:43:56.181Z,1013.35
2022-10-07T09:44:56.189Z,1013.42
2022-10-07T09:45:56.287Z,1013.41
2022-10-07T09:46:56.163Z,1013.42
2022-10-07T09:47:56.148Z,1013.37
2022-10-07T09:48:56.136Z,1013.35
2022-10-07T09:49:56.117Z,1013.41
2022-10-07T09:50:56.103Z,1013.38
2022-10-07T09:51:56.092Z,1013.38
2022-10-07T09:53:01.170Z,1013.34
2022-10-07T09:53:56.071Z,1013.40
2022-10-07T09:54:56.054Z,1013.36
2022-10-07T09:55:56.060Z,1013.34
2022-10-07T09:56:56.032Z,1013.34
2022-10-07T09:57:56.034Z,1013.30
2022-10-07T09:58:56.009Z,1013.36
2022-10-07T09:59:56.042Z,1013.28
2022-10-07T10:00:56.034Z,1013.25
2022-10-07T10:01:56.058Z,1013.28
2022-10-07T10:02:56.026Z,1013.28
2022-10-07T10:04:00.977Z,1013.30
2022-10-07T10:04:55.941Z,1013.35
2022-10-07T10:05:55.931Z,1013.31
2022-10-07T10:06:55.921Z,1013.32
2022-10-07T10:07:55.931Z,1013.32
2022-10-07T10:08:55.906Z,1013.29
2022-10-07T10:09:55.895Z,1013.30
2022-10-07T10:10:55.874Z,1013.17
2022-10-07T10:11:55.926Z,1013.13
2022-10-07T10:12:55.864Z,1013.11
2022-10-07T10:13:55.843Z,1013.20
2022-10-07T10:15:00.860Z,1013.12
2022-10-07T10:15:55.873Z,1013.17
2022-10-07T10:16:55.825Z,1013.15
2022-10-07T10:17:55.810Z,1013.08
2022-10-07T10:18:55.783Z,1013.08
2022-10-07T10:19:55.775Z,1013.05
2022-10-07T10:20:55.851Z,1013.10
2022-10-07T10:21:55.757Z,1013.04
2022-10-07T10:22:55.750Z,1013.04
2022-10-07T10:23:55.729Z,1012.98
2022-10-07T10:24:55.717Z,1013.03
2022-10-07T10:26:00.726Z,1013.01
2022-10-07T10:26:55.693Z,1013.01
2022-10-07T10:27:55.693Z,1012.96
2022-10-07T10:28:55.672Z,1012.94
2022-10-07T10:29:55.663Z,1012.97
2022-10-07T10:30:55.683Z,1013.00
2022-10-07T10:31:55.648Z,1012.99
2022-10-07T10:32:55.669Z,1012.87
2022-10-07T10:33:55.615Z,1012.91
2022-10-07T10:34:55.602Z,1012.90
2022-10-07T10:35:55.606Z,1012.83
2022-10-07T10:37:00.619Z,1012.80
2022-10-07T10:37:55.619Z,1012.73
2022-10-07T10:38:55.557Z,1012.76
2022-10-07T10:39:55.549Z,1012.75
2022-10-07T10:40:55.559Z,1012.80
2022-10-07T10:41:55.531Z,1012.75
2022-10-07T10:42:55.581Z,1012.77
2022-10-07T10:43:55.499Z,1012.67
2022-10-07T10:44:55.486Z,1012.67
2022-10-07T10:45:55.479Z,1012.66
2022-10-07T10:46:55.527Z,1012.65
2022-10-07T10:48:00.509Z,1012.61
2022-10-07T10:48:55.442Z,1012.61
2022-10-07T10:49:55.437Z,1012.61
2022-10-07T10:50:55.423Z,1012.57
2022-10-07T10:51:55.416Z,1012.55
2022-10-07T10:52:55.398Z,1012.57
2022-10-07T10:53:55.411Z,1012.62
2022-10-07T10:54:55.373Z,1012.63
2022-10-07T10:55:55.365Z,1012.59
2022-10-07T10:56:55.350Z,1012.61
2022-10-07T10:58:00.006Z,1012.51
2022-10-07T10:59:01.360Z,1012.57
2022-10-07T10:59:55.317Z,1012.48
2022-10-07T11:00:59.541Z,1012.48
2022-10-07T11:01:55.351Z,1012.51
2022-10-07T11:02:55.365Z,1012.45
2022-10-07T11:03:55.343Z,1012.41
2022-10-07T11:04:55.259Z,1012.39
2022-10-07T11:05:55.249Z,1012.32
2022-10-07T11:06:55.237Z,1012.35
2022-10-07T11:07:55.231Z,1012.34
2022-10-07T11:08:55.246Z,1012.33
2022-10-07T11:10:00.324Z,1012.28
2022-10-07T11:10:55.203Z,1012.30
2022-10-07T11:11:55.185Z,1012.37
2022-10-07T11:12:55.170Z,1012.33
2022-10-07T11:13:55.178Z,1012.28
2022-10-07T11:14:57.735Z,1012.27
2022-10-07T11:15:55.161Z,1012.24
2022-10-07T11:16:55.134Z,1012.22
2022-10-07T11:17:55.178Z,1012.23
2022-10-07T11:18:55.554Z,1012.28
2022-10-07T11:19:55.121Z,1012.25
2022-10-07T11:21:00.106Z,1012.27
2022-10-07T11:21:55.069Z,1012.17
2022-10-07T11:22:55.056Z,1012.17
2022-10-07T11:23:55.058Z,1012.17
2022-10-07T11:24:55.036Z,1012.11
2022-10-07T11:25:55.072Z,1012.19
2022-10-07T11:26:55.022Z,1012.14
2022-10-07T11:27:55.012Z,1012.22
2022-10-07T11:28:55.012Z,1012.06
2022-10-07T11:29:54.988Z,1012.02
2022-10-07T11:30:55.028Z,1012.06
2022-10-07T11:31:59.992Z,1012.03
2022-10-07T11:32:54.959Z,1011.97
2022-10-07T11:33:54.950Z,1011.95
2022-10-07T11:34:54.981Z,1011.94
2022-10-07T11:35:54.956Z,1011.95
2022-10-07T11:36:54.901Z,1011.88
2022-10-07T11:37:54.905Z,1011.89
2022-10-07T11:38:54.893Z,1011.87
2022-10-07T11:39:54.878Z,1011.82
2022-10-07T11:40:54.853Z,1011.86
2022-10-07T11:41:54.847Z,1011.84
2022-10-07T11:42:59.854Z,1011.82
2022-10-07T11:43:54.838Z,1011.82
2022-10-07T11:44:54.810Z,1011.76
2022-10-07T11:45:54.802Z,1011.73
2022-10-07T11:46:54.897Z,1011.73
2022-10-07T11:47:54.787Z,1011.69
2022-10-07T11:48:54.774Z,1011.70
2022-10-07T11:49:54.752Z,1011.67
2022-10-07T11:50:54.739Z,1011.74
2022-10-07T11:51:54.799Z,1011.74
2022-10-07T11:52:54.748Z,1011.73
2022-10-07T11:53:59.739Z,1011.72
2022-10-07T11:54:54.694Z,1011.66
2022-10-07T11:55:55.343Z,1011.68
2022-10-07T11:56:54.671Z,1011.61
2022-10-07T11:57:54.665Z,1011.63
2022-10-07T11:58:54.660Z,1011.60
2022-10-07T11:59:54.639Z,1011.56
2022-10-07T12:00:54.624Z,1011.56
2022-10-07T12:01:54.670Z,1011.56
2022-10-07T12:02:54.639Z,1011.60
2022-10-07T12:03:54.633Z,1011.57
2022-10-07T12:04:59.633Z,1011.53